Time;durP1;ratioP1;P1;durP2;ratioP2;P2;SDS_P1;SDS_P2;PMS_P1;PMS_P2;Temp;Humidity;BMP_temperature;BMP_pressure;BME280_temperature;BME280_humidity;BME280_pressure;Samples;Min_cycle;Max_cycle;Signal;HPM_P1;HPM_P2
2021/01/26 00:02:20;;;;;;;7.50;5.35;;;4.20;96.70;;;;;;4919463;29;20137;-69
2021/01/26 00:04:48;;;;;;;7.25;4.13;;;4.10;96.70;;;;;;4924194;28;20630;-68
2021/01/26 00:07:16;;;;;;;7.10;4.35;;;4.10;96.70;;;;;;4942468;28;20532;-69
2021/01/26 00:09:44;;;;;;;5.35;3.58;;;3.90;96.70;;;;;;4940955;28;20099;-69
2021/01/26 00:12:12;;;;;;;5.57;3.53;;;3.80;96.70;;;;;;4943038;28;20035;-69
2021/01/26 00:14:39;;;;;;;5.80;3.22;;;3.80;96.70;;;;;;4938983;28;20058;-68
2021/01/26 00:17:07;;;;;;;5.90;3.17;;;3.80;96.70;;;;;;4943195;28;20051;-69
2021/01/26 00:19:34;;;;;;;7.72;3.20;;;3.70;96.70;;;;;;4922952;29;20035;-68
2021/01/26 00:22:03;;;;;;;6.45;3.15;;;3.60;96.70;;;;;;4941574;28;20043;-68
2021/01/26 00:24:30;;;;;;;4.95;2.88;;;3.60;96.70;;;;;;4941632;28;20498;-69
2021/01/26 00:26:57;;;;;;;4.68;2.55;;;3.70;96.70;;;;;;4917739;28;21235;-68
2021/01/26 00:29:25;;;;;;;4.90;2.85;;;3.60;96.70;;;;;;4942452;28;20588;-68
2021/01/26 00:31:52;;;;;;;5.40;3.20;;;3.60;96.70;;;;;;4903412;29;20446;-68
2021/01/26 00:34:19;;;;;;;4.97;2.60;;;3.50;96.70;;;;;;4940476;28;20051;-69
2021/01/26 00:36:47;;;;;;;5.40;3.17;;;3.40;96.70;;;;;;4924555;28;20505;-69
2021/01/26 00:39:15;;;;;;;5.93;3.10;;;3.50;96.70;;;;;;4937690;28;20050;-68
2021/01/26 00:41:42;;;;;;;4.13;2.83;;;3.60;96.70;;;;;;4943697;28;20040;-69
2021/01/26 00:44:10;;;;;;;4.47;2.90;;;3.60;96.70;;;;;;4924085;28;20047;-69
2021/01/26 00:46:37;;;;;;;5.07;3.00;;;3.80;96.70;;;;;;4941092;28;20090;-69
2021/01/26 00:49:05;;;;;;;4.95;2.95;;;3.70;96.70;;;;;;4942320;28;20461;-68
2021/01/26 00:51:32;;;;;;;3.85;2.80;;;3.70;96.70;;;;;;4942244;28;20079;-68
2021/01/26 00:54:00;;;;;;;6.43;2.80;;;3.80;96.70;;;;;;4940889;28;20039;-68
2021/01/26 00:56:32;;;;;;;7.63;2.85;;;3.50;96.70;;;;;;4941242;28;20134;-68
2021/01/26 00:58:59;;;;;;;3.97;2.30;;;3.40;96.70;;;;;;4923377;28;20122;-68
2021/01/26 01:01:27;;;;;;;5.68;2.70;;;3.50;96.70;;;;;;4940492;28;20043;-69
2021/01/26 01:03:54;;;;;;;4.15;2.40;;;3.60;96.70;;;;;;4924065;28;20141;-68
2021/01/26 01:06:22;;;;;;;4.18;2.33;;;3.60;96.70;;;;;;4940963;28;20047;-68
2021/01/26 01:08:49;;;;;;;3.22;2.20;;;3.40;96.70;;;;;;4921031;28;20122;-68
2021/01/26 01:11:16;;;;;;;3.83;2.45;;;3.40;96.70;;;;;;4923936;28;20436;-69
2021/01/26 01:13:44;;;;;;;3.67;2.40;;;3.50;96.70;;;;;;4941688;28;20047;-69
2021/01/26 01:16:13;;;;;;;4.80;1.83;;;3.50;96.70;;;;;;4940757;28;20035;-69
2021/01/26 01:18:40;;;;;;;3.67;2.20;;;3.50;96.70;;;;;;4940497;28;20051;-68
2021/01/26 01:21:08;;;;;;;5.90;2.22;;;3.50;96.70;;;;;;4941165;28;20424;-68
2021/01/26 01:23:35;;;;;;;4.95;2.05;;;3.40;96.70;;;;;;4938948;28;20926;-68
2021/01/26 01:26:02;;;;;;;4.28;2.17;;;3.40;96.70;;;;;;4940228;28;20614;-68
2021/01/26 01:28:29;;;;;;;3.38;1.98;;;3.40;96.70;;;;;;4940552;28;20726;-68
2021/01/26 01:30:57;;;;;;;3.17;1.80;;;3.40;96.70;;;;;;4919389;29;20432;-68
2021/01/26 01:33:24;;;;;;;4.53;2.28;;;3.30;96.70;;;;;;4922556;29;20043;-68
2021/01/26 01:35:52;;;;;;;8.25;3.13;;;3.30;96.70;;;;;;4939418;28;20403;-68
2021/01/26 01:38:19;;;;;;;4.05;2.42;;;3.20;96.70;;;;;;4938263;28;20812;-68
2021/01/26 01:40:47;;;;;;;3.85;2.45;;;3.20;96.70;;;;;;4937426;28;20031;-69
2021/01/26 01:43:14;;;;;;;4.03;2.28;;;3.30;96.70;;;;;;4940081;28;20651;-68
2021/01/26 01:45:41;;;;;;;3.83;2.47;;;3.20;96.70;;;;;;4936128;28;20527;-68
2021/01/26 01:48:15;;;;;;;4.35;2.45;;;3.20;96.70;;;;;;4936026;28;20398;-68
2021/01/26 01:50:47;;;;;;;4.38;2.70;;;3.20;96.70;;;;;;4939759;28;20134;-68
2021/01/26 01:53:18;;;;;;;6.28;2.63;;;3.10;96.70;;;;;;4922944;28;20040;-69
2021/01/26 01:55:52;;;;;;;4.70;2.90;;;3.00;96.70;;;;;;4941667;28;20126;-69
2021/01/26 01:58:23;;;;;;;4.90;3.00;;;3.10;96.70;;;;;;4939259;28;20431;-68
2021/01/26 02:00:56;;;;;;;5.72;3.15;;;3.00;96.70;;;;;;4939947;28;20048;-68
2021/01/26 02:03:27;;;;;;;5.28;3.55;;;3.00;96.70;;;;;;4938453;28;20704;-69
2021/01/26 02:05:57;;;;;;;4.47;2.78;;;3.20;96.70;;;;;;4936076;28;20059;-69
2021/01/26 02:08:31;;;;;;;5.28;3.38;;;3.30;96.70;;;;;;4942086;28;20046;-68
2021/01/26 02:10:58;;;;;;;4.00;2.95;;;3.30;96.70;;;;;;4939649;28;20039;-68
2021/01/26 02:13:25;;;;;;;4.53;2.95;;;3.30;96.70;;;;;;4938314;28;20707;-68
2021/01/26 02:15:59;;;;;;;4.65;3.00;;;3.20;96.70;;;;;;4939115;28;20039;-68
2021/01/26 02:18:40;;;;;;;6.45;2.90;;;3.10;96.70;;;;;;4926943;28;20051;-69
2021/01/26 02:21:40;;;;;;;4.53;2.35;;;3.10;96.70;;;;;;4905957;29;20043;-68
2021/01/26 02:24:35;;;;;;;2.20;1.50;;;3.20;96.70;;;;;;4925068;28;20075;-68
2021/01/26 02:27:28;;;;;;;4.32;2.15;;;3.10;96.70;;;;;;4945976;28;20053;-69
2021/01/26 02:30:24;;;;;;;4.63;2.17;;;3.10;96.70;;;;;;4927779;29;20214;-69
2021/01/26 02:33:20;;;;;;;5.28;2.15;;;3.10;96.70;;;;;;4937063;28;20070;-68
2021/01/26 02:36:13;;;;;;;3.85;2.00;;;3.20;96.70;;;;;;4942718;28;20310;-69
2021/01/26 02:39:05;;;;;;;4.53;1.90;;;3.10;96.70;;;;;;4943932;28;20047;-68
2021/01/26 02:41:40;;;;;;;4.30;1.90;;;3.20;96.70;;;;;;4919385;29;20130;-68
2021/01/26 02:44:19;;;;;;;2.10;1.50;;;3.00;96.70;;;;;;4919618;29;20048;-68
2021/01/26 02:46:54;;;;;;;2.83;1.70;;;2.90;96.70;;;;;;4942552;28;20043;-68
2021/01/26 02:49:27;;;;;;;3.25;1.40;;;2.80;96.70;;;;;;4926823;28;20058;-69
2021/01/26 02:52:04;;;;;;;2.33;1.48;;;2.80;96.70;;;;;;4944715;28;20059;-69
2021/01/26 02:54:34;;;;;;;;;;;2.70;96.70;;;;;;4943684;28;20062;-68
2021/01/26 02:57:11;;;;;;;3.03;1.67;;;2.70;96.70;;;;;;4941401;28;20042;-69
2021/01/26 02:59:46;;;;;;;2.75;1.83;;;2.70;96.70;;;;;;4939171;28;20098;-69
2021/01/26 03:02:20;;;;;;;3.37;1.50;;;2.80;96.70;;;;;;4921719;28;20043;-69
2021/01/26 03:04:55;;;;;;;2.88;1.38;;;2.80;96.70;;;;;;4911189;29;20047;-69
2021/01/26 03:07:26;;;;;;;2.70;1.20;;;2.70;96.70;;;;;;4923136;28;20070;-68
2021/01/26 03:09:59;;;;;;;1.83;1.05;;;2.70;96.70;;;;;;4939860;28;20322;-68
2021/01/26 03:12:33;;;;;;;3.50;1.20;;;2.60;96.70;;;;;;4942224;28;20528;-69
2021/01/26 03:15:04;;;;;;;2.42;1.30;;;2.70;96.70;;;;;;4941609;28;20047;-68
2021/01/26 03:17:35;;;;;;;2.05;1.20;;;2.70;96.70;;;;;;4941396;28;20051;-68
2021/01/26 03:20:11;;;;;;;2.83;1.40;;;2.60;96.70;;;;;;4939148;28;20487;-68
2021/01/26 03:22:44;;;;;;;2.00;1.23;;;2.60;96.70;;;;;;4941748;28;20043;-68
2021/01/26 03:25:12;;;;;;;3.40;1.38;;;2.70;96.70;;;;;;4940100;28;20043;-69
2021/01/26 03:27:43;;;;;;;3.95;1.58;;;2.80;96.70;;;;;;4937743;28;20417;-68
2021/01/26 03:30:16;;;;;;;1.75;1.10;;;2.90;96.70;;;;;;4926796;29;20186;-69
2021/01/26 03:32:46;;;;;;;3.05;1.65;;;2.80;96.70;;;;;;4925495;28;20059;-69
2021/01/26 03:35:15;;;;;;;2.08;1.33;;;2.70;96.70;;;;;;4942306;28;20559;-69
2021/01/26 03:37:55;;;;;;;2.97;1.33;;;2.70;96.70;;;;;;4941394;28;20062;-69
2021/01/26 03:40:22;;;;;;;2.95;1.20;;;2.70;96.70;;;;;;4941293;28;20098;-69
2021/01/26 03:42:50;;;;;;;1.70;1.20;;;2.60;96.70;;;;;;4921300;28;20445;-69
2021/01/26 03:45:18;;;;;;;4.55;1.20;;;2.70;96.70;;;;;;4925955;28;20122;-69
2021/01/26 03:47:59;;;;;;;2.08;1.10;;;2.70;96.70;;;;;;4942947;28;20106;-69
2021/01/26 03:50:39;;;;;;;2.28;1.20;;;2.70;96.70;;;;;;4925721;29;20043;-69
2021/01/26 03:53:28;;;;;;;3.25;0.90;;;2.70;96.70;;;;;;4924989;28;20138;-69
2021/01/26 03:56:04;;;;;;;2.40;1.23;;;2.80;96.70;;;;;;4922567;29;20067;-69
2021/01/26 03:58:45;;;;;;;2.50;1.05;;;2.60;96.70;;;;;;4939725;28;20062;-69
2021/01/26 04:01:18;;;;;;;3.80;1.10;;;2.60;96.70;;;;;;4939615;28;20042;-69
2021/01/26 04:03:53;;;;;;;2.65;1.17;;;2.60;96.70;;;;;;4939714;28;20112;-69
2021/01/26 04:06:27;;;;;;;2.58;1.42;;;2.50;96.70;;;;;;4942667;28;20130;-68
2021/01/26 04:08:57;;;;;;;2.25;1.13;;;2.50;96.70;;;;;;4918339;28;20079;-69
2021/01/26 04:11:29;;;;;;;4.90;2.00;;;2.50;96.70;;;;;;4902122;29;20051;-69
2021/01/26 04:14:02;;;;;;;5.95;1.90;;;2.50;96.70;;;;;;4940876;28;20035;-69
2021/01/26 04:16:36;;;;;;;4.20;2.08;;;2.40;96.70;;;;;;4943083;28;20138;-69
2021/01/26 04:19:07;;;;;;;3.17;2.00;;;2.30;96.70;;;;;;4919146;29;20129;-69
2021/01/26 04:21:36;;;;;;;3.42;1.92;;;2.20;96.70;;;;;;4919811;28;20058;-69
2021/01/26 04:24:04;;;;;;;4.13;2.25;;;2.30;96.70;;;;;;4939602;28;20057;-69
2021/01/26 04:26:35;;;;;;;3.10;1.90;;;2.20;96.70;;;;;;4942076;28;20572;-69
2021/01/26 04:29:03;;;;;;;2.70;1.63;;;2.20;96.70;;;;;;4925230;28;20039;-69
2021/01/26 04:31:32;;;;;;;4.85;1.67;;;2.10;96.70;;;;;;4944629;28;20019;-69
2021/01/26 04:34:00;;;;;;;2.50;1.52;;;2.20;96.70;;;;;;4929071;29;20067;-68
2021/01/26 04:36:27;;;;;;;3.17;1.95;;;2.20;96.70;;;;;;4940785;28;20050;-68
2021/01/26 04:38:54;;;;;;;4.30;2.17;;;2.20;96.70;;;;;;4920095;28;20098;-68
2021/01/26 04:41:32;;;;;;;5.70;2.47;;;2.20;96.70;;;;;;4922152;29;20036;-68
2021/01/26 04:44:22;;;;;;;3.80;2.42;;;2.20;96.70;;;;;;4941895;28;20090;-68
2021/01/26 04:47:01;;;;;;;3.63;2.17;;;2.20;96.70;;;;;;4921823;29;20039;-68
2021/01/26 04:49:34;;;;;;;4.00;2.20;;;2.20;96.70;;;;;;4938941;28;20035;-68
2021/01/26 04:52:11;;;;;;;2.42;1.98;;;2.10;96.70;;;;;;4922634;29;20366;-68
2021/01/26 04:54:51;;;;;;;3.33;2.20;;;2.10;96.70;;;;;;4921168;28;20174;-68
2021/01/26 04:57:32;;;;;;;4.10;2.00;;;2.10;96.70;;;;;;4905962;29;20074;-68
2021/01/26 05:00:11;;;;;;;4.55;2.60;;;2.10;96.70;;;;;;4938971;28;20043;-68
2021/01/26 05:03:00;;;;;;;3.83;2.10;;;2.00;96.70;;;;;;4942175;28;20055;-68
2021/01/26 05:05:34;;;;;;;2.90;2.00;;;2.00;96.70;;;;;;4938289;28;20047;-68
2021/01/26 05:08:08;;;;;;;3.67;2.17;;;2.00;96.70;;;;;;4924133;29;20150;-68
2021/01/26 05:10:39;;;;;;;4.15;1.98;;;1.90;96.70;;;;;;4941106;28;20047;-68
2021/01/26 05:13:14;;;;;;;2.03;1.58;;;1.90;96.70;;;;;;4936100;28;20130;-68
2021/01/26 05:15:49;;;;;;;1.92;1.13;;;1.80;96.70;;;;;;4938580;28;20043;-68
2021/01/26 05:18:24;;;;;;;3.08;1.70;;;1.90;96.70;;;;;;4938585;28;20058;-68
2021/01/26 05:20:57;;;;;;;2.60;1.50;;;1.90;96.70;;;;;;4942096;28;20069;-68
2021/01/26 05:23:31;;;;;;;3.95;1.88;;;1.90;96.70;;;;;;4938304;28;20054;-68
2021/01/26 05:26:03;;;;;;;5.03;1.90;;;1.90;96.70;;;;;;4923536;29;20098;-68
2021/01/26 05:28:31;;;;;;;3.25;1.85;;;1.90;96.70;;;;;;4938166;28;20203;-68
2021/01/26 05:31:06;;;;;;;4.28;1.98;;;1.80;96.70;;;;;;4922525;29;20409;-68
2021/01/26 05:33:36;;;;;;;3.88;1.92;;;1.80;96.70;;;;;;4918398;28;20631;-69
2021/01/26 05:36:04;;;;;;;6.55;2.15;;;1.80;96.70;;;;;;4923520;28;20043;-69
2021/01/26 05:38:31;;;;;;;3.83;1.90;;;1.80;96.70;;;;;;4917565;29;20047;-68
2021/01/26 05:41:03;;;;;;;2.05;1.38;;;1.90;96.70;;;;;;4915485;29;20134;-68
2021/01/26 05:43:32;;;;;;;2.90;2.03;;;1.80;96.70;;;;;;4936353;28;20051;-68
2021/01/26 05:46:03;;;;;;;3.88;1.67;;;1.70;96.70;;;;;;4940122;28;20174;-68
2021/01/26 05:48:45;;;;;;;4.20;1.83;;;1.80;96.70;;;;;;4942018;28;20048;-68
2021/01/26 05:51:20;;;;;;;5.45;1.52;;;1.80;96.70;;;;;;4910082;29;20110;-68
2021/01/26 05:53:53;;;;;;;3.70;1.65;;;1.80;96.70;;;;;;4911112;29;20047;-68
2021/01/26 05:56:21;;;;;;;5.43;2.80;;;1.70;96.70;;;;;;4943177;28;20053;-66
2021/01/26 05:58:49;;;;;;;12.43;3.55;;;1.70;96.70;;;;;;4925850;29;20481;-66
2021/01/26 06:01:28;;;;;;;6.22;2.85;;;1.80;96.70;;;;;;4927838;29;20053;-66
2021/01/26 06:04:12;;;;;;;5.60;3.13;;;1.70;96.70;;;;;;4919573;28;20075;-66
2021/01/26 06:06:55;;;;;;;3.75;2.17;;;1.80;96.70;;;;;;4927120;28;20055;-66
2021/01/26 06:09:32;;;;;;;3.78;2.33;;;1.70;96.70;;;;;;4917966;29;20517;-66
2021/01/26 06:12:09;;;;;;;5.75;3.20;;;1.70;96.70;;;;;;4939715;28;20138;-66
2021/01/26 06:14:36;;;;;;;;;;;1.60;96.70;;;;;;4942105;28;20051;-66
2021/01/26 06:17:06;;;;;;;16.33;8.65;;;1.60;96.70;;;;;;4927454;28;20295;-66
2021/01/26 06:19:34;;;;;;;11.48;5.75;;;1.70;96.70;;;;;;4943768;28;20043;-66
2021/01/26 06:22:03;;;;;;;26.35;13.38;;;1.70;96.70;;;;;;4940258;28;20039;-66
2021/01/26 06:24:34;;;;;;;25.27;13.00;;;1.60;96.70;;;;;;4941392;28;20044;-66
2021/01/26 06:27:21;;;;;;;23.08;11.68;;;1.70;96.70;;;;;;4925051;28;20047;-66
2021/01/26 06:29:51;;;;;;;;;;;1.60;96.70;;;;;;4920926;29;20512;-68
2021/01/26 06:32:32;;;;;;;6.30;4.07;;;1.40;96.70;;;;;;4941526;28;19953;-68
2021/01/26 06:35:08;;;;;;;5.70;3.60;;;1.30;96.70;;;;;;4942100;28;20090;-68
2021/01/26 06:37:50;;;;;;;7.80;5.35;;;1.50;96.70;;;;;;4921723;29;20052;-68
2021/01/26 06:40:35;;;;;;;9.93;5.00;;;1.50;96.70;;;;;;4939275;28;20066;-68
2021/01/26 06:43:08;;;;;;;8.00;4.72;;;1.50;96.70;;;;;;4941909;28;20114;-68
2021/01/26 06:45:45;;;;;;;8.18;5.00;;;1.50;96.70;;;;;;4924472;28;20058;-69
2021/01/26 06:48:29;;;;;;;9.15;5.25;;;1.60;96.70;;;;;;4937727;28;20044;-68
2021/01/26 06:51:22;;;;;;;11.85;5.13;;;1.70;96.70;;;;;;4943414;28;20039;-68
2021/01/26 06:54:00;;;;;;;7.10;4.32;;;1.60;96.70;;;;;;4943486;28;20063;-68
2021/01/26 06:56:53;;;;;;;8.77;4.40;;;1.60;96.70;;;;;;4926782;29;20401;-68
2021/01/26 06:59:37;;;;;;;10.68;4.40;;;1.50;96.70;;;;;;4909629;28;20442;-68
2021/01/26 07:02:25;;;;;;;9.43;3.97;;;1.60;96.70;;;;;;4924158;28;20062;-68
2021/01/26 07:05:20;;;;;;;5.97;3.28;;;1.60;96.70;;;;;;4940526;28;20042;-68
2021/01/26 07:08:11;;;;;;;5.88;3.60;;;1.70;96.70;;;;;;4919147;29;20047;-68
2021/01/26 07:10:52;;;;;;;6.30;3.72;;;1.70;96.70;;;;;;4925660;28;20047;-68
2021/01/26 07:13:32;;;;;;;6.75;3.55;;;1.80;96.70;;;;;;4923661;28;20043;-68
2021/01/26 07:16:11;;;;;;;4.65;2.85;;;1.90;96.70;;;;;;4940435;28;20126;-68
2021/01/26 07:19:07;;;;;;;5.00;2.97;;;1.90;96.70;;;;;;4943636;28;20240;-68
2021/01/26 07:21:53;;;;;;;5.57;3.38;;;1.80;96.70;;;;;;4921713;28;20070;-68
2021/01/26 07:24:27;;;;;;;7.63;4.40;;;1.90;96.70;;;;;;4940267;28;20469;-69
2021/01/26 07:27:22;;;;;;;5.85;3.70;;;1.80;96.70;;;;;;4940020;28;20441;-69
2021/01/26 07:29:59;;;;;;;6.32;3.22;;;1.80;96.70;;;;;;4910013;29;20580;-69
2021/01/26 07:32:33;;;;;;;7.78;3.78;;;1.90;96.70;;;;;;4925616;28;20134;-69
2021/01/26 07:35:08;;;;;;;6.07;3.40;;;1.80;96.70;;;;;;4925741;29;20031;-69
2021/01/26 07:37:46;;;;;;;6.13;3.80;;;1.90;96.70;;;;;;4902587;28;20123;-69
2021/01/26 07:40:22;;;;;;;7.00;3.72;;;1.90;96.70;;;;;;4940920;28;20085;-69
2021/01/26 07:42:58;;;;;;;7.13;3.38;;;1.90;96.70;;;;;;4920441;29;20114;-69
2021/01/26 07:45:30;;;;;;;5.57;4.28;;;2.00;96.70;;;;;;4924682;29;20158;-69
2021/01/26 07:48:05;;;;;;;5.47;3.65;;;2.10;96.70;;;;;;4910166;29;20047;-69
2021/01/26 07:50:38;;;;;;;8.50;4.20;;;2.10;96.70;;;;;;4938985;28;20054;-69
2021/01/26 07:53:20;;;;;;;5.30;3.33;;;2.20;96.70;;;;;;4924539;28;20047;-69
2021/01/26 07:55:52;;;;;;;6.30;3.55;;;2.10;96.70;;;;;;4908002;28;20055;-69
2021/01/26 07:58:20;;;;;;;4.88;3.30;;;2.20;96.70;;;;;;4940400;28;20607;-70
2021/01/26 08:00:51;;;;;;;5.05;3.60;;;2.20;96.70;;;;;;4924406;28;20043;-70
2021/01/26 08:03:22;;;;;;;5.80;3.92;;;2.20;96.70;;;;;;4924957;28;20475;-70
2021/01/26 08:05:52;;;;;;;5.85;4.18;;;2.30;96.70;;;;;;4940178;28;20544;-70
2021/01/26 08:08:25;;;;;;;6.20;4.13;;;2.40;96.70;;;;;;4920948;28;20126;-70
2021/01/26 08:11:08;;;;;;;6.75;3.80;;;2.40;96.70;;;;;;4940314;28;20487;-70
2021/01/26 08:13:38;;;;;;;6.63;3.90;;;2.40;96.70;;;;;;4940021;28;20039;-70
2021/01/26 08:16:17;;;;;;;4.00;3.25;;;2.40;96.70;;;;;;4941810;28;20963;-70
2021/01/26 08:18:44;;;;;;;6.35;3.95;;;2.40;96.70;;;;;;4937525;28;20048;-70
2021/01/26 08:21:29;;;;;;;7.20;4.30;;;2.60;96.70;;;;;;4937620;28;20094;-70
2021/01/26 08:24:17;;;;;;;8.27;4.32;;;2.70;96.70;;;;;;4919533;28;20043;-70
2021/01/26 08:26:45;;;;;;;4.50;3.13;;;2.80;96.70;;;;;;4917869;28;20051;-69
2021/01/26 08:29:47;;;;;;;5.80;3.45;;;3.00;96.70;;;;;;4937426;28;20121;-70
2021/01/26 08:32:44;;;;;;;7.65;3.63;;;3.20;96.70;;;;;;4917581;28;20048;-71
2021/01/26 08:35:39;;;;;;;5.97;3.85;;;3.40;96.70;;;;;;4939760;28;20859;-71
2021/01/26 08:38:07;;;;;;;6.43;3.45;;;3.40;96.70;;;;;;4939967;28;20047;-71
2021/01/26 08:41:04;;;;;;;4.35;3.47;;;3.40;96.70;;;;;;4932808;28;20055;-71
2021/01/26 08:43:48;;;;;;;6.15;3.72;;;3.50;96.70;;;;;;4936035;28;20075;-71
2021/01/26 08:46:30;;;;;;;6.65;4.03;;;3.60;96.70;;;;;;4936180;28;20067;-71
2021/01/26 08:49:01;;;;;;;5.93;3.72;;;3.60;96.70;;;;;;4913618;29;20508;-70
2021/01/26 08:51:29;;;;;;;7.97;4.50;;;3.60;96.70;;;;;;4940471;28;20047;-71
2021/01/26 08:53:58;;;;;;;10.48;4.90;;;3.70;96.70;;;;;;4919982;28;20105;-72
2021/01/26 08:56:37;;;;;;;12.00;5.18;;;3.80;96.70;;;;;;4934107;28;20071;-71
2021/01/26 08:59:08;;;;;;;11.85;5.07;;;3.80;96.70;;;;;;4936052;28;20556;-71
2021/01/26 09:01:41;;;;;;;9.13;5.10;;;3.90;96.70;;;;;;4939497;28;20564;-71
2021/01/26 09:04:38;;;;;;;12.45;5.80;;;3.90;96.70;;;;;;4938474;28;20049;-71
2021/01/26 09:07:06;;;;;;;10.77;5.65;;;3.90;96.70;;;;;;4936099;28;20054;-70
2021/01/26 09:09:51;;;;;;;12.05;6.45;;;4.00;96.70;;;;;;4939720;28;20414;-71
2021/01/26 09:12:22;;;;;;;11.82;6.43;;;4.10;96.70;;;;;;4936741;28;20066;-70
2021/01/26 09:14:58;;;;;;;12.77;6.28;;;4.20;96.70;;;;;;4923277;28;20043;-71
2021/01/26 09:17:30;;;;;;;9.65;5.80;;;4.20;96.70;;;;;;4937413;28;20125;-71
2021/01/26 09:20:08;;;;;;;10.13;6.00;;;4.30;96.70;;;;;;4938151;28;20405;-70
2021/01/26 09:22:36;;;;;;;8.80;5.35;;;4.40;96.70;;;;;;4939348;28;20058;-71
2021/01/26 09:25:12;;;;;;;9.60;5.40;;;4.50;96.70;;;;;;4940628;28;20052;-70
2021/01/26 09:27:40;;;;;;;10.32;5.28;;;4.60;96.70;;;;;;4939453;28;20047;-71
2021/01/26 09:30:14;;;;;;;7.97;5.15;;;4.80;96.70;;;;;;4940701;28;20361;-70
2021/01/26 09:32:45;;;;;;;12.38;5.78;;;4.90;96.70;;;;;;4937197;28;20047;-70
2021/01/26 09:35:23;;;;;;;11.02;5.97;;;5.00;96.70;;;;;;4931678;28;20541;-71
2021/01/26 09:38:13;;;;;;;10.85;5.60;;;5.10;96.70;;;;;;4920477;28;20091;-70
2021/01/26 09:40:43;;;;;;;7.40;5.15;;;5.10;96.70;;;;;;4936950;28;20051;-70
2021/01/26 09:43:18;;;;;;;7.30;4.63;;;5.20;96.70;;;;;;4939264;28;20048;-70
2021/01/26 09:45:53;;;;;;;7.30;4.65;;;5.20;96.70;;;;;;4935294;28;20561;-70
2021/01/26 09:48:38;;;;;;;7.13;5.40;;;5.30;96.70;;;;;;4920748;28;20058;-71
2021/01/26 09:51:11;;;;;;;7.45;4.90;;;5.40;96.70;;;;;;4937445;28;20047;-71
2021/01/26 09:53:41;;;;;;;7.32;4.97;;;5.50;96.70;;;;;;4936404;28;20135;-71
2021/01/26 09:56:10;;;;;;;8.38;4.55;;;5.60;96.70;;;;;;4937148;28;20045;-70
2021/01/26 09:58:38;;;;;;;7.57;4.80;;;5.70;96.70;;;;;;4940477;28;20043;-71
2021/01/26 10:01:07;;;;;;;5.95;5.28;;;5.70;96.70;;;;;;4936055;28;20098;-70
2021/01/26 10:03:35;;;;;;;8.10;5.75;;;5.80;96.70;;;;;;4937023;28;20039;-71
2021/01/26 10:06:03;;;;;;;8.68;5.82;;;5.90;96.70;;;;;;4908161;29;20501;-71
2021/01/26 10:08:31;;;;;;;7.40;5.63;;;6.00;96.70;;;;;;4941927;28;20046;-71
2021/01/26 10:11:18;;;;;;;8.75;4.97;;;6.00;96.70;;;;;;4938776;28;20102;-70
2021/01/26 10:13:46;;;;;;;7.13;5.53;;;6.10;96.70;;;;;;4918682;29;20151;-70
2021/01/26 10:16:25;;;;;;;7.25;4.88;;;6.20;96.70;;;;;;4938331;28;20035;-70
2021/01/26 10:18:54;;;;;;;7.45;5.05;;;6.40;96.70;;;;;;4939468;28;20057;-70
2021/01/26 10:21:31;;;;;;;6.40;4.53;;;6.50;96.70;;;;;;4939551;28;20052;-70
2021/01/26 10:24:02;;;;;;;7.18;4.95;;;6.60;96.70;;;;;;4919583;28;20046;-71
2021/01/26 10:26:33;;;;;;;8.65;5.43;;;6.70;96.70;;;;;;4939431;28;20098;-71
2021/01/26 10:29:17;;;;;;;5.68;4.53;;;6.90;96.70;;;;;;4940039;28;20547;-70
2021/01/26 10:31:48;;;;;;;9.20;6.22;;;7.00;96.70;;;;;;4937772;28;20409;-70
2021/01/26 10:34:19;;;;;;;7.53;6.10;;;7.10;96.70;;;;;;4937640;28;20055;-70
2021/01/26 10:36:50;;;;;;;10.18;6.32;;;7.20;96.70;;;;;;4943185;28;20054;-70
2021/01/26 10:39:25;;;;;;;10.40;7.18;;;7.30;96.70;;;;;;4943514;28;20043;-70
2021/01/26 10:42:04;;;;;;;10.75;7.53;;;7.40;96.70;;;;;;4921048;28;20416;-70
2021/01/26 10:44:31;;;;;;;12.18;8.25;;;7.40;96.70;;;;;;4940480;28;20126;-71
2021/01/26 10:47:00;;;;;;;13.50;9.00;;;7.40;96.70;;;;;;4908952;29;20402;-71
2021/01/26 10:49:30;;;;;;;16.08;11.18;;;7.50;96.70;;;;;;4942394;28;20046;-71
2021/01/26 10:52:01;;;;;;;13.65;9.82;;;7.60;96.70;;;;;;4921922;28;20058;-71
2021/01/26 10:54:28;;;;;;;14.25;9.52;;;7.80;96.70;;;;;;4941101;28;20119;-71
2021/01/26 10:56:56;;;;;;;13.77;9.88;;;7.90;96.70;;;;;;4941966;28;20039;-70
2021/01/26 10:59:23;;;;;;;15.82;10.63;;;8.00;96.70;;;;;;4922147;28;20047;-71
2021/01/26 11:01:51;;;;;;;15.30;11.25;;;8.10;96.70;;;;;;4924392;28;20035;-71
2021/01/26 11:04:20;;;;;;;16.05;11.77;;;8.10;96.70;;;;;;4920426;29;20043;-71
2021/01/26 11:06:47;;;;;;;13.52;10.02;;;8.10;96.70;;;;;;4941772;28;20043;-71
2021/01/26 11:09:16;;;;;;;15.25;10.48;;;8.20;96.70;;;;;;4941794;28;20038;-71
2021/01/26 11:11:44;;;;;;;15.13;10.80;;;8.40;96.70;;;;;;4940901;28;20043;-70
2021/01/26 11:14:12;;;;;;;15.32;11.00;;;8.50;96.70;;;;;;4943010;28;20039;-70
2021/01/26 11:16:40;;;;;;;16.92;11.40;;;8.50;96.70;;;;;;4944855;28;20039;-69
2021/01/26 11:19:11;;;;;;;15.10;10.18;;;8.60;96.70;;;;;;4940589;28;20043;-69
2021/01/26 11:21:39;;;;;;;15.50;10.40;;;8.70;96.30;;;;;;4941979;28;20118;-69
2021/01/26 11:24:10;;;;;;;18.83;9.85;;;8.80;95.90;;;;;;4919813;28;20605;-70
2021/01/26 11:26:37;;;;;;;16.63;10.13;;;8.90;94.90;;;;;;4939891;28;20130;-69
2021/01/26 11:29:05;;;;;;;16.42;10.55;;;9.00;93.90;;;;;;4940802;28;20031;-69
2021/01/26 11:31:32;;;;;;;14.00;10.40;;;9.10;94.20;;;;;;4942497;28;20134;-69
2021/01/26 11:34:00;;;;;;;17.90;11.85;;;9.00;94.50;;;;;;4939986;28;20073;-69
2021/01/26 11:36:27;;;;;;;15.07;10.82;;;9.10;94.20;;;;;;4925464;29;20055;-69
2021/01/26 11:38:56;;;;;;;16.27;10.55;;;9.10;94.20;;;;;;4940836;28;20050;-68
2021/01/26 11:41:23;;;;;;;16.10;10.23;;;9.20;93.30;;;;;;4920891;28;20409;-68
2021/01/26 11:43:51;;;;;;;14.80;10.20;;;9.20;92.40;;;;;;4936846;28;20457;-69
2021/01/26 11:46:18;;;;;;;14.77;9.57;;;9.30;92.10;;;;;;4942282;28;20101;-68
2021/01/26 11:48:46;;;;;;;13.90;9.18;;;9.40;90.60;;;;;;4905215;28;20589;-68
2021/01/26 11:51:13;;;;;;;10.43;8.00;;;9.50;90.00;;;;;;4941273;28;20054;-68
2021/01/26 11:53:41;;;;;;;14.65;8.63;;;9.60;89.50;;;;;;4942145;28;20125;-71
2021/01/26 11:56:09;;;;;;;9.63;7.15;;;9.70;89.70;;;;;;4941056;28;20568;-70
2021/01/26 11:58:36;;;;;;;12.38;8.13;;;9.80;88.10;;;;;;4923594;29;20050;-70
2021/01/26 12:01:06;;;;;;;11.70;6.95;;;9.90;87.30;;;;;;4924148;28;20051;-70
2021/01/26 12:03:33;;;;;;;10.95;5.95;;;10.00;85.70;;;;;;4925007;28;20050;-70
2021/01/26 12:06:03;;;;;;;8.93;5.93;;;10.10;84.40;;;;;;4940227;28;20047;-71
2021/01/26 12:08:30;;;;;;;8.93;4.90;;;10.20;83.90;;;;;;4938185;28;20039;-71
2021/01/26 12:10:58;;;;;;;11.98;7.65;;;10.30;83.20;;;;;;4943458;28;20144;-71
2021/01/26 12:13:28;;;;;;;11.25;5.32;;;10.40;83.40;;;;;;4941264;28;20527;-71
2021/01/26 12:15:55;;;;;;;7.68;4.82;;;10.60;83.40;;;;;;4919304;28;20141;-71
2021/01/26 12:18:23;;;;;;;6.40;4.80;;;10.60;83.20;;;;;;4936999;28;20043;-69
2021/01/26 12:20:51;;;;;;;6.53;4.53;;;10.70;81.70;;;;;;4909991;28;20071;-69
2021/01/26 12:23:19;;;;;;;7.15;4.45;;;10.70;82.10;;;;;;4924504;28;20109;-69
2021/01/26 12:25:46;;;;;;;6.70;4.68;;;10.80;82.10;;;;;;4942407;28;20508;-69
2021/01/26 12:28:14;;;;;;;7.25;4.50;;;10.70;80.50;;;;;;4928421;28;20466;-69
2021/01/26 12:30:42;;;;;;;7.85;4.60;;;10.80;81.40;;;;;;4939663;28;20564;-69
2021/01/26 12:33:09;;;;;;;5.75;4.07;;;10.80;78.90;;;;;;4925883;28;20046;-69
2021/01/26 12:35:38;;;;;;;4.95;3.92;;;11.00;80.80;;;;;;4936404;28;20043;-69
2021/01/26 12:38:07;;;;;;;5.78;3.50;;;11.20;81.30;;;;;;4925779;28;20477;-69
2021/01/26 12:40:34;;;;;;;4.55;2.67;;;11.30;77.50;;;;;;4942396;28;20122;-69
2021/01/26 12:43:02;;;;;;;4.78;2.38;;;11.30;74.50;;;;;;4925143;28;20090;-69
2021/01/26 12:45:31;;;;;;;4.40;2.42;;;11.40;76.40;;;;;;4907240;28;20050;-69
2021/01/26 12:48:01;;;;;;;3.33;2.20;;;11.60;72.70;;;;;;4940998;28;20049;-69
2021/01/26 12:50:36;;;;;;;4.70;2.13;;;11.70;71.20;;;;;;4906187;28;20535;-69
2021/01/26 12:53:04;;;;;;;5.82;2.03;;;11.70;70.20;;;;;;4922658;29;20074;-69
2021/01/26 12:55:32;;;;;;;5.30;2.70;;;11.70;68.30;;;;;;4907276;29;20087;-69
2021/01/26 12:58:01;;;;;;;3.15;2.00;;;11.80;69.30;;;;;;4918527;29;20044;-71
2021/01/26 13:00:29;;;;;;;5.10;2.38;;;11.80;67.40;;;;;;4920804;29;20044;-71
2021/01/26 13:02:57;;;;;;;4.30;1.80;;;11.90;67.80;;;;;;4919232;28;20493;-69
2021/01/26 13:05:29;;;;;;;3.60;1.63;;;12.00;68.80;;;;;;4911650;29;20503;-69
2021/01/26 13:07:58;;;;;;;4.57;1.70;;;12.10;68.10;;;;;;4922401;29;20052;-69
2021/01/26 13:10:26;;;;;;;3.25;1.92;;;12.20;67.90;;;;;;4917366;29;20150;-69
2021/01/26 13:12:55;;;;;;;5.55;1.77;;;12.10;67.20;;;;;;4918581;29;21164;-69
2021/01/26 13:15:23;;;;;;;3.08;1.60;;;12.10;67.80;;;;;;4918768;29;20050;-69
2021/01/26 13:17:50;;;;;;;2.17;1.27;;;12.00;66.90;;;;;;4922329;29;20067;-69
2021/01/26 13:20:18;;;;;;;3.38;1.40;;;12.00;65.10;;;;;;4921387;29;20680;-69
2021/01/26 13:22:47;;;;;;;3.22;1.10;;;12.00;65.80;;;;;;4922103;28;20446;-69
2021/01/26 13:25:17;;;;;;;2.03;1.00;;;12.00;64.70;;;;;;4921141;29;20362;-69